sensor_id;sensor_type;location;lat;lon;timestamp;P1;durP1;ratioP1;P2;durP2;ratioP2
64609;SDS011;51019;46.090;6.350;2022-08-19T00:02:24;14.70;;;5.13;;
64609;SDS011;51019;46.090;6.350;2022-08-19T00:04:51;11.05;;;4.72;;
64609;SDS011;51019;46.090;6.350;2022-08-19T00:07:19;14.30;;;5.22;;
64609;SDS011;51019;46.090;6.350;2022-08-19T00:09:47;11.35;;;4.65;;
64609;SDS011;51019;46.090;6.350;2022-08-19T00:12:14;12.88;;;4.85;;
64609;SDS011;51019;46.090;6.350;2022-08-19T00:14:41;13.35;;;4.85;;
64609;SDS011;51019;46.090;6.350;2022-08-19T00:17:08;13.05;;;5.32;;
64609;SDS011;51019;46.090;6.350;2022-08-19T00:19:36;13.75;;;5.50;;
64609;SDS011;51019;46.090;6.350;2022-08-19T00:22:03;13.02;;;5.10;;
64609;SDS011;51019;46.090;6.350;2022-08-19T00:24:31;15.30;;;5.50;;
64609;SDS011;51019;46.090;6.350;2022-08-19T00:27:00;12.07;;;5.20;;
64609;SDS011;51019;46.090;6.350;2022-08-19T00:29:27;13.32;;;5.28;;
64609;SDS011;51019;46.090;6.350;2022-08-19T00:31:55;13.48;;;5.45;;
64609;SDS011;51019;46.090;6.350;2022-08-19T00:34:23;14.13;;;5.10;;
64609;SDS011;51019;46.090;6.350;2022-08-19T00:36:54;13.88;;;5.50;;
64609;SDS011;51019;46.090;6.350;2022-08-19T00:39:21;13.48;;;5.28;;
64609;SDS011;51019;46.090;6.350;2022-08-19T00:41:49;12.23;;;5.22;;
64609;SDS011;51019;46.090;6.350;2022-08-19T00:44:19;14.05;;;6.13;;
64609;SDS011;51019;46.090;6.350;2022-08-19T00:46:48;15.93;;;6.00;;
64609;SDS011;51019;46.090;6.350;2022-08-19T00:49:17;13.38;;;6.13;;
64609;SDS011;51019;46.090;6.350;2022-08-19T00:51:49;15.48;;;6.03;;
64609;SDS011;51019;46.090;6.350;2022-08-19T00:54:19;15.90;;;5.88;;
64609;SDS011;51019;46.090;6.350;2022-08-19T00:56:47;13.65;;;6.13;;
64609;SDS011;51019;46.090;6.350;2022-08-19T00:59:15;14.15;;;6.38;;
64609;SDS011;51019;46.090;6.350;2022-08-19T01:01:45;14.57;;;5.80;;
64609;SDS011;51019;46.090;6.350;2022-08-19T01:04:13;14.90;;;6.25;;
64609;SDS011;51019;46.090;6.350;2022-08-19T01:06:40;14.10;;;6.32;;
64609;SDS011;51019;46.090;6.350;2022-08-19T01:09:08;14.48;;;6.35;;
64609;SDS011;51019;46.090;6.350;2022-08-19T01:11:36;14.27;;;6.82;;
64609;SDS011;51019;46.090;6.350;2022-08-19T01:14:07;14.27;;;6.07;;
64609;SDS011;51019;46.090;6.350;2022-08-19T01:16:35;12.70;;;5.60;;
64609;SDS011;51019;46.090;6.350;2022-08-19T01:19:05;13.68;;;5.65;;
64609;SDS011;51019;46.090;6.350;2022-08-19T01:21:43;13.90;;;6.25;;
64609;SDS011;51019;46.090;6.350;2022-08-19T01:24:17;19.75;;;6.75;;
64609;SDS011;51019;46.090;6.350;2022-08-19T01:26:46;15.07;;;6.20;;
64609;SDS011;51019;46.090;6.350;2022-08-19T01:29:14;13.52;;;5.85;;
64609;SDS011;51019;46.090;6.350;2022-08-19T01:31:41;13.90;;;6.18;;
64609;SDS011;51019;46.090;6.350;2022-08-19T01:34:09;14.43;;;6.03;;
64609;SDS011;51019;46.090;6.350;2022-08-19T01:36:37;14.98;;;6.30;;
64609;SDS011;51019;46.090;6.350;2022-08-19T01:39:09;18.58;;;5.80;;
64609;SDS011;51019;46.090;6.350;2022-08-19T01:41:39;16.80;;;6.15;;
64609;SDS011;51019;46.090;6.350;2022-08-19T01:44:07;14.20;;;5.60;;
64609;SDS011;51019;46.090;6.350;2022-08-19T01:46:35;15.25;;;5.72;;
64609;SDS011;51019;46.090;6.350;2022-08-19T01:49:02;13.98;;;5.93;;
64609;SDS011;51019;46.090;6.350;2022-08-19T01:51:30;18.13;;;6.95;;
64609;SDS011;51019;46.090;6.350;2022-08-19T01:53:57;14.27;;;6.50;;
64609;SDS011;51019;46.090;6.350;2022-08-19T01:56:24;17.50;;;6.70;;
64609;SDS011;51019;46.090;6.350;2022-08-19T01:58:54;15.50;;;6.57;;
64609;SDS011;51019;46.090;6.350;2022-08-19T02:01:24;14.10;;;6.88;;
64609;SDS011;51019;46.090;6.350;2022-08-19T02:03:51;15.45;;;7.00;;
64609;SDS011;51019;46.090;6.350;2022-08-19T02:06:20;13.65;;;6.18;;
64609;SDS011;51019;46.090;6.350;2022-08-19T02:08:46;12.82;;;5.47;;
64609;SDS011;51019;46.090;6.350;2022-08-19T02:11:18;14.50;;;6.75;;
64609;SDS011;51019;46.090;6.350;2022-08-19T02:13:46;14.27;;;6.35;;
64609;SDS011;51019;46.090;6.350;2022-08-19T02:16:16;17.13;;;6.70;;
64609;SDS011;51019;46.090;6.350;2022-08-19T02:18:43;14.35;;;6.13;;
64609;SDS011;51019;46.090;6.350;2022-08-19T02:21:10;15.23;;;6.63;;
64609;SDS011;51019;46.090;6.350;2022-08-19T02:23:38;15.93;;;6.03;;
64609;SDS011;51019;46.090;6.350;2022-08-19T02:26:05;12.80;;;5.82;;
64609;SDS011;51019;46.090;6.350;2022-08-19T02:28:32;15.63;;;6.40;;
64609;SDS011;51019;46.090;6.350;2022-08-19T02:31:00;16.42;;;6.28;;
64609;SDS011;51019;46.090;6.350;2022-08-19T02:33:29;14.38;;;6.50;;
64609;SDS011;51019;46.090;6.350;2022-08-19T02:35:56;14.45;;;6.40;;
64609;SDS011;51019;46.090;6.350;2022-08-19T02:38:23;15.38;;;6.57;;
64609;SDS011;51019;46.090;6.350;2022-08-19T02:40:52;16.88;;;7.57;;
64609;SDS011;51019;46.090;6.350;2022-08-19T02:43:21;14.02;;;6.65;;
64609;SDS011;51019;46.090;6.350;2022-08-19T02:45:49;15.93;;;7.50;;
64609;SDS011;51019;46.090;6.350;2022-08-19T02:48:16;19.75;;;7.28;;
64609;SDS011;51019;46.090;6.350;2022-08-19T02:50:46;15.27;;;6.78;;
64609;SDS011;51019;46.090;6.350;2022-08-19T02:53:19;16.02;;;6.95;;
64609;SDS011;51019;46.090;6.350;2022-08-19T02:55:48;15.85;;;7.10;;
64609;SDS011;51019;46.090;6.350;2022-08-19T02:58:16;15.38;;;7.35;;
64609;SDS011;51019;46.090;6.350;2022-08-19T03:00:44;15.10;;;6.53;;
64609;SDS011;51019;46.090;6.350;2022-08-19T03:03:15;16.35;;;6.93;;
64609;SDS011;51019;46.090;6.350;2022-08-19T03:05:44;14.55;;;6.22;;
64609;SDS011;51019;46.090;6.350;2022-08-19T03:08:13;15.23;;;6.43;;
64609;SDS011;51019;46.090;6.350;2022-08-19T03:10:41;14.45;;;6.10;;
64609;SDS011;51019;46.090;6.350;2022-08-19T03:13:11;15.40;;;6.28;;
64609;SDS011;51019;46.090;6.350;2022-08-19T03:15:40;14.15;;;5.95;;
64609;SDS011;51019;46.090;6.350;2022-08-19T03:18:08;12.85;;;5.45;;
64609;SDS011;51019;46.090;6.350;2022-08-19T03:20:39;14.15;;;5.85;;
64609;SDS011;51019;46.090;6.350;2022-08-19T03:23:07;13.68;;;5.25;;
64609;SDS011;51019;46.090;6.350;2022-08-19T03:25:37;17.13;;;5.45;;
64609;SDS011;51019;46.090;6.350;2022-08-19T03:28:08;13.75;;;5.25;;
64609;SDS011;51019;46.090;6.350;2022-08-19T03:30:35;13.20;;;5.00;;
64609;SDS011;51019;46.090;6.350;2022-08-19T03:33:02;13.77;;;6.05;;
64609;SDS011;51019;46.090;6.350;2022-08-19T03:35:29;13.95;;;5.68;;
64609;SDS011;51019;46.090;6.350;2022-08-19T03:37:57;13.35;;;4.70;;
64609;SDS011;51019;46.090;6.350;2022-08-19T03:40:25;12.18;;;4.05;;
64609;SDS011;51019;46.090;6.350;2022-08-19T03:42:53;12.55;;;4.47;;
64609;SDS011;51019;46.090;6.350;2022-08-19T03:45:20;11.05;;;4.03;;
64609;SDS011;51019;46.090;6.350;2022-08-19T03:47:47;10.95;;;3.70;;
64609;SDS011;51019;46.090;6.350;2022-08-19T03:50:14;11.98;;;4.25;;
64609;SDS011;51019;46.090;6.350;2022-08-19T03:52:47;11.13;;;4.20;;
64609;SDS011;51019;46.090;6.350;2022-08-19T03:55:15;11.23;;;4.30;;
64609;SDS011;51019;46.090;6.350;2022-08-19T03:57:42;11.65;;;4.22;;
64609;SDS011;51019;46.090;6.350;2022-08-19T04:00:12;11.43;;;4.13;;
64609;SDS011;51019;46.090;6.350;2022-08-19T04:02:40;11.43;;;3.80;;
64609;SDS011;51019;46.090;6.350;2022-08-19T04:05:07;12.30;;;4.22;;
64609;SDS011;51019;46.090;6.350;2022-08-19T04:07:34;12.20;;;4.70;;
64609;SDS011;51019;46.090;6.350;2022-08-19T04:10:01;12.68;;;4.57;;
64609;SDS011;51019;46.090;6.350;2022-08-19T04:12:29;12.02;;;4.68;;
64609;SDS011;51019;46.090;6.350;2022-08-19T04:14:56;12.80;;;4.15;;
64609;SDS011;51019;46.090;6.350;2022-08-19T04:17:25;12.85;;;4.85;;
64609;SDS011;51019;46.090;6.350;2022-08-19T04:19:52;12.18;;;4.47;;
64609;SDS011;51019;46.090;6.350;2022-08-19T04:22:19;12.35;;;4.65;;
64609;SDS011;51019;46.090;6.350;2022-08-19T04:24:45;13.10;;;4.45;;
64609;SDS011;51019;46.090;6.350;2022-08-19T04:27:12;14.15;;;4.55;;
64609;SDS011;51019;46.090;6.350;2022-08-19T04:29:41;11.75;;;4.20;;
64609;SDS011;51019;46.090;6.350;2022-08-19T04:32:08;11.38;;;4.55;;
64609;SDS011;51019;46.090;6.350;2022-08-19T04:34:37;11.55;;;3.92;;
64609;SDS011;51019;46.090;6.350;2022-08-19T04:37:04;15.57;;;4.65;;
64609;SDS011;51019;46.090;6.350;2022-08-19T04:39:32;12.25;;;4.05;;
64609;SDS011;51019;46.090;6.350;2022-08-19T04:42:17;12.60;;;3.90;;
64609;SDS011;51019;46.090;6.350;2022-08-19T04:45:01;13.35;;;5.07;;
64609;SDS011;51019;46.090;6.350;2022-08-19T04:47:29;12.88;;;4.80;;
64609;SDS011;51019;46.090;6.350;2022-08-19T04:49:59;11.82;;;4.60;;
64609;SDS011;51019;46.090;6.350;2022-08-19T04:52:26;11.32;;;4.13;;
64609;SDS011;51019;46.090;6.350;2022-08-19T04:54:53;11.77;;;4.22;;
64609;SDS011;51019;46.090;6.350;2022-08-19T04:57:21;13.27;;;4.40;;
64609;SDS011;51019;46.090;6.350;2022-08-19T04:59:48;11.32;;;4.35;;
64609;SDS011;51019;46.090;6.350;2022-08-19T05:02:19;13.23;;;4.43;;
64609;SDS011;51019;46.090;6.350;2022-08-19T05:04:49;11.13;;;3.63;;
64609;SDS011;51019;46.090;6.350;2022-08-19T05:07:18;12.27;;;4.15;;
64609;SDS011;51019;46.090;6.350;2022-08-19T05:09:45;11.65;;;4.20;;
64609;SDS011;51019;46.090;6.350;2022-08-19T05:12:12;13.82;;;4.60;;
64609;SDS011;51019;46.090;6.350;2022-08-19T05:14:39;12.52;;;4.05;;
64609;SDS011;51019;46.090;6.350;2022-08-19T05:17:06;14.57;;;4.95;;
64609;SDS011;51019;46.090;6.350;2022-08-19T05:19:33;12.90;;;4.93;;
64609;SDS011;51019;46.090;6.350;2022-08-19T05:22:18;12.43;;;4.93;;
64609;SDS011;51019;46.090;6.350;2022-08-19T05:25:05;11.55;;;4.60;;
64609;SDS011;51019;46.090;6.350;2022-08-19T05:27:34;11.05;;;4.35;;
64609;SDS011;51019;46.090;6.350;2022-08-19T05:30:01;12.50;;;4.55;;
64609;SDS011;51019;46.090;6.350;2022-08-19T05:32:28;14.60;;;4.78;;
64609;SDS011;51019;46.090;6.350;2022-08-19T05:34:55;12.55;;;4.72;;
64609;SDS011;51019;46.090;6.350;2022-08-19T05:37:24;12.25;;;4.72;;
64609;SDS011;51019;46.090;6.350;2022-08-19T05:39:52;12.68;;;4.80;;
64609;SDS011;51019;46.090;6.350;2022-08-19T05:42:20;15.43;;;4.95;;
64609;SDS011;51019;46.090;6.350;2022-08-19T05:44:48;12.15;;;4.53;;
64609;SDS011;51019;46.090;6.350;2022-08-19T05:47:16;12.90;;;4.40;;
64609;SDS011;51019;46.090;6.350;2022-08-19T05:49:44;11.85;;;4.65;;
64609;SDS011;51019;46.090;6.350;2022-08-19T05:52:12;11.82;;;4.72;;
64609;SDS011;51019;46.090;6.350;2022-08-19T05:54:43;13.15;;;4.93;;
64609;SDS011;51019;46.090;6.350;2022-08-19T05:57:12;12.32;;;4.65;;
64609;SDS011;51019;46.090;6.350;2022-08-19T05:59:40;12.68;;;4.80;;
64609;SDS011;51019;46.090;6.350;2022-08-19T06:02:07;13.57;;;4.60;;
64609;SDS011;51019;46.090;6.350;2022-08-19T06:04:34;12.60;;;4.78;;
64609;SDS011;51019;46.090;6.350;2022-08-19T06:07:01;15.05;;;5.22;;
64609;SDS011;51019;46.090;6.350;2022-08-19T06:09:29;17.75;;;5.40;;
64609;SDS011;51019;46.090;6.350;2022-08-19T06:11:58;13.32;;;5.18;;
64609;SDS011;51019;46.090;6.350;2022-08-19T06:14:28;13.68;;;4.80;;
64609;SDS011;51019;46.090;6.350;2022-08-19T06:16:57;12.25;;;4.85;;
64609;SDS011;51019;46.090;6.350;2022-08-19T06:19:27;14.55;;;5.05;;
64609;SDS011;51019;46.090;6.350;2022-08-19T06:21:56;13.65;;;5.60;;
64609;SDS011;51019;46.090;6.350;2022-08-19T06:24:25;13.45;;;5.25;;
64609;SDS011;51019;46.090;6.350;2022-08-19T06:26:55;14.20;;;5.18;;
64609;SDS011;51019;46.090;6.350;2022-08-19T06:29:24;12.63;;;4.90;;
64609;SDS011;51019;46.090;6.350;2022-08-19T06:31:53;14.40;;;5.15;;
64609;SDS011;51019;46.090;6.350;2022-08-19T06:34:21;13.40;;;5.00;;
64609;SDS011;51019;46.090;6.350;2022-08-19T06:36:49;13.52;;;5.18;;
64609;SDS011;51019;46.090;6.350;2022-08-19T06:39:18;14.05;;;5.18;;
64609;SDS011;51019;46.090;6.350;2022-08-19T06:41:47;13.23;;;4.90;;
64609;SDS011;51019;46.090;6.350;2022-08-19T06:44:16;14.63;;;5.07;;
64609;SDS011;51019;46.090;6.350;2022-08-19T06:46:46;12.43;;;4.43;;
64609;SDS011;51019;46.090;6.350;2022-08-19T06:49:13;13.13;;;4.53;;
64609;SDS011;51019;46.090;6.350;2022-08-19T06:51:41;11.93;;;4.30;;
64609;SDS011;51019;46.090;6.350;2022-08-19T06:54:09;14.00;;;4.53;;
64609;SDS011;51019;46.090;6.350;2022-08-19T06:56:36;11.13;;;3.50;;
64609;SDS011;51019;46.090;6.350;2022-08-19T06:59:05;11.40;;;3.75;;
64609;SDS011;51019;46.090;6.350;2022-08-19T07:01:34;10.00;;;3.33;;
64609;SDS011;51019;46.090;6.350;2022-08-19T07:04:04;11.68;;;3.88;;
64609;SDS011;51019;46.090;6.350;2022-08-19T07:06:33;11.68;;;3.42;;
64609;SDS011;51019;46.090;6.350;2022-08-19T07:09:02;10.57;;;3.05;;
64609;SDS011;51019;46.090;6.350;2022-08-19T07:11:30;10.30;;;3.00;;
64609;SDS011;51019;46.090;6.350;2022-08-19T07:13:57;8.77;;;2.70;;
64609;SDS011;51019;46.090;6.350;2022-08-19T07:16:24;8.38;;;2.40;;
64609;SDS011;51019;46.090;6.350;2022-08-19T07:18:52;8.63;;;2.42;;
64609;SDS011;51019;46.090;6.350;2022-08-19T07:21:22;8.68;;;2.50;;
64609;SDS011;51019;46.090;6.350;2022-08-19T07:23:51;9.93;;;2.50;;
64609;SDS011;51019;46.090;6.350;2022-08-19T07:26:19;8.48;;;2.60;;
64609;SDS011;51019;46.090;6.350;2022-08-19T07:28:49;7.03;;;2.20;;
64609;SDS011;51019;46.090;6.350;2022-08-19T07:31:17;8.55;;;2.30;;
64609;SDS011;51019;46.090;6.350;2022-08-19T07:33:46;9.77;;;2.53;;
64609;SDS011;51019;46.090;6.350;2022-08-19T07:36:16;9.23;;;2.70;;
64609;SDS011;51019;46.090;6.350;2022-08-19T07:38:48;8.38;;;2.33;;
64609;SDS011;51019;46.090;6.350;2022-08-19T07:41:18;8.70;;;2.50;;
64609;SDS011;51019;46.090;6.350;2022-08-19T07:43:46;7.78;;;2.33;;
64609;SDS011;51019;46.090;6.350;2022-08-19T07:46:15;9.75;;;2.70;;
64609;SDS011;51019;46.090;6.350;2022-08-19T07:48:45;9.60;;;2.92;;
64609;SDS011;51019;46.090;6.350;2022-08-19T07:51:14;11.15;;;3.22;;
64609;SDS011;51019;46.090;6.350;2022-08-19T07:53:43;9.63;;;2.70;;
64609;SDS011;51019;46.090;6.350;2022-08-19T07:56:13;9.95;;;3.15;;
64609;SDS011;51019;46.090;6.350;2022-08-19T07:58:41;11.38;;;3.72;;
64609;SDS011;51019;46.090;6.350;2022-08-19T08:01:11;9.73;;;2.83;;
64609;SDS011;51019;46.090;6.350;2022-08-19T08:03:40;8.93;;;2.70;;
64609;SDS011;51019;46.090;6.350;2022-08-19T08:06:25;11.07;;;3.13;;
64609;SDS011;51019;46.090;6.350;2022-08-19T08:09:10;12.82;;;3.45;;
64609;SDS011;51019;46.090;6.350;2022-08-19T08:11:45;11.65;;;3.28;;
64609;SDS011;51019;46.090;6.350;2022-08-19T08:14:15;10.20;;;2.85;;
64609;SDS011;51019;46.090;6.350;2022-08-19T08:16:44;10.60;;;3.00;;
64609;SDS011;51019;46.090;6.350;2022-08-19T08:19:11;8.68;;;2.70;;
64609;SDS011;51019;46.090;6.350;2022-08-19T08:21:41;10.52;;;3.00;;
64609;SDS011;51019;46.090;6.350;2022-08-19T08:24:09;9.95;;;3.05;;
64609;SDS011;51019;46.090;6.350;2022-08-19T08:26:37;8.80;;;2.70;;
64609;SDS011;51019;46.090;6.350;2022-08-19T08:29:07;8.20;;;2.53;;
64609;SDS011;51019;46.090;6.350;2022-08-19T08:31:36;9.98;;;2.92;;
64609;SDS011;51019;46.090;6.350;2022-08-19T08:34:04;9.02;;;2.75;;
64609;SDS011;51019;46.090;6.350;2022-08-19T08:36:31;9.40;;;2.40;;
64609;SDS011;51019;46.090;6.350;2022-08-19T08:38:58;9.23;;;2.65;;
64609;SDS011;51019;46.090;6.350;2022-08-19T08:41:27;8.73;;;2.50;;
64609;SDS011;51019;46.090;6.350;2022-08-19T08:43:59;8.55;;;2.60;;
64609;SDS011;51019;46.090;6.350;2022-08-19T08:46:33;9.80;;;2.70;;
64609;SDS011;51019;46.090;6.350;2022-08-19T08:49:07;9.02;;;2.78;;
64609;SDS011;51019;46.090;6.350;2022-08-19T08:51:46;10.25;;;3.35;;
64609;SDS011;51019;46.090;6.350;2022-08-19T08:54:19;10.82;;;3.50;;
64609;SDS011;51019;46.090;6.350;2022-08-19T08:56:50;10.50;;;3.40;;
64609;SDS011;51019;46.090;6.350;2022-08-19T08:59:20;10.80;;;3.42;;
64609;SDS011;51019;46.090;6.350;2022-08-19T09:01:53;10.70;;;3.65;;
64609;SDS011;51019;46.090;6.350;2022-08-19T09:04:20;12.00;;;3.50;;
64609;SDS011;51019;46.090;6.350;2022-08-19T09:06:49;9.35;;;3.25;;
64609;SDS011;51019;46.090;6.350;2022-08-19T09:09:23;8.80;;;2.78;;
64609;SDS011;51019;46.090;6.350;2022-08-19T09:11:59;9.65;;;3.08;;
64609;SDS011;51019;46.090;6.350;2022-08-19T09:14:36;10.05;;;3.03;;
64609;SDS011;51019;46.090;6.350;2022-08-19T09:17:12;9.55;;;2.92;;
64609;SDS011;51019;46.090;6.350;2022-08-19T09:19:46;10.50;;;3.30;;
64609;SDS011;51019;46.090;6.350;2022-08-19T09:22:16;9.77;;;3.13;;
64609;SDS011;51019;46.090;6.350;2022-08-19T09:24:46;13.43;;;3.38;;
64609;SDS011;51019;46.090;6.350;2022-08-19T09:27:14;11.50;;;3.35;;
64609;SDS011;51019;46.090;6.350;2022-08-19T09:29:41;11.88;;;3.80;;
64609;SDS011;51019;46.090;6.350;2022-08-19T09:32:08;11.70;;;3.65;;
64609;SDS011;51019;46.090;6.350;2022-08-19T09:34:37;11.65;;;3.78;;
64609;SDS011;51019;46.090;6.350;2022-08-19T09:37:04;10.85;;;3.38;;
64609;SDS011;51019;46.090;6.350;2022-08-19T09:39:31;10.80;;;3.80;;
64609;SDS011;51019;46.090;6.350;2022-08-19T09:41:58;9.90;;;3.17;;
64609;SDS011;51019;46.090;6.350;2022-08-19T09:44:25;10.35;;;3.50;;
64609;SDS011;51019;46.090;6.350;2022-08-19T09:46:52;10.95;;;3.70;;
64609;SDS011;51019;46.090;6.350;2022-08-19T09:49:19;12.45;;;3.97;;
64609;SDS011;51019;46.090;6.350;2022-08-19T09:51:50;11.30;;;4.10;;
64609;SDS011;51019;46.090;6.350;2022-08-19T09:54:20;10.77;;;3.60;;
64609;SDS011;51019;46.090;6.350;2022-08-19T09:56:47;11.98;;;3.78;;
64609;SDS011;51019;46.090;6.350;2022-08-19T09:59:14;10.57;;;3.50;;
64609;SDS011;51019;46.090;6.350;2022-08-19T10:01:41;12.50;;;4.00;;
64609;SDS011;51019;46.090;6.350;2022-08-19T10:04:08;11.25;;;3.58;;
64609;SDS011;51019;46.090;6.350;2022-08-19T10:06:36;11.70;;;4.35;;
64609;SDS011;51019;46.090;6.350;2022-08-19T10:09:07;11.35;;;4.10;;
64609;SDS011;51019;46.090;6.350;2022-08-19T10:11:36;11.52;;;4.28;;
64609;SDS011;51019;46.090;6.350;2022-08-19T10:14:07;15.75;;;4.82;;
64609;SDS011;51019;46.090;6.350;2022-08-19T10:16:36;11.20;;;3.90;;
64609;SDS011;51019;46.090;6.350;2022-08-19T10:19:04;13.38;;;3.97;;
64609;SDS011;51019;46.090;6.350;2022-08-19T10:21:31;11.30;;;3.67;;
64609;SDS011;51019;46.090;6.350;2022-08-19T10:24:01;11.07;;;3.90;;
64609;SDS011;51019;46.090;6.350;2022-08-19T10:26:33;10.50;;;4.03;;
64609;SDS011;51019;46.090;6.350;2022-08-19T10:29:02;12.57;;;4.40;;
64609;SDS011;51019;46.090;6.350;2022-08-19T10:31:31;13.70;;;4.38;;
64609;SDS011;51019;46.090;6.350;2022-08-19T10:33:59;11.77;;;4.55;;
64609;SDS011;51019;46.090;6.350;2022-08-19T10:36:28;12.48;;;4.63;;
64609;SDS011;51019;46.090;6.350;2022-08-19T10:38:57;11.93;;;4.60;;
64609;SDS011;51019;46.090;6.350;2022-08-19T10:41:27;12.07;;;4.25;;
64609;SDS011;51019;46.090;6.350;2022-08-19T10:43:57;12.90;;;4.40;;
64609;SDS011;51019;46.090;6.350;2022-08-19T10:46:27;11.20;;;4.50;;
64609;SDS011;51019;46.090;6.350;2022-08-19T10:48:57;13.05;;;4.57;;
64609;SDS011;51019;46.090;6.350;2022-08-19T10:51:25;11.52;;;4.53;;
64609;SDS011;51019;46.090;6.350;2022-08-19T10:54:09;11.18;;;4.07;;
64609;SDS011;51019;46.090;6.350;2022-08-19T10:56:37;12.43;;;4.15;;
64609;SDS011;51019;46.090;6.350;2022-08-19T10:59:20;11.55;;;4.60;;
64609;SDS011;51019;46.090;6.350;2022-08-19T11:01:49;11.30;;;4.25;;
64609;SDS011;51019;46.090;6.350;2022-08-19T11:04:17;12.18;;;4.70;;
64609;SDS011;51019;46.090;6.350;2022-08-19T11:06:45;11.90;;;4.88;;
64609;SDS011;51019;46.090;6.350;2022-08-19T11:09:14;11.20;;;4.20;;
64609;SDS011;51019;46.090;6.350;2022-08-19T11:11:43;12.40;;;5.07;;
64609;SDS011;51019;46.090;6.350;2022-08-19T11:14:11;11.40;;;4.78;;
64609;SDS011;51019;46.090;6.350;2022-08-19T11:16:41;11.57;;;4.25;;
64609;SDS011;51019;46.090;6.350;2022-08-19T11:19:09;12.13;;;4.65;;
64609;SDS011;51019;46.090;6.350;2022-08-19T11:21:38;12.07;;;4.80;;
64609;SDS011;51019;46.090;6.350;2022-08-19T11:24:07;12.23;;;4.30;;
64609;SDS011;51019;46.090;6.350;2022-08-19T11:26:37;12.65;;;4.85;;
64609;SDS011;51019;46.090;6.350;2022-08-19T11:29:05;11.63;;;4.70;;
64609;SDS011;51019;46.090;6.350;2022-08-19T11:31:36;12.20;;;4.78;;
64609;SDS011;51019;46.090;6.350;2022-08-19T11:34:09;12.18;;;4.82;;
64609;SDS011;51019;46.090;6.350;2022-08-19T11:36:39;11.88;;;4.97;;
64609;SDS011;51019;46.090;6.350;2022-08-19T11:39:07;11.75;;;4.22;;
64609;SDS011;51019;46.090;6.350;2022-08-19T11:41:35;12.65;;;5.32;;
64609;SDS011;51019;46.090;6.350;2022-08-19T11:44:02;11.77;;;4.65;;
64609;SDS011;51019;46.090;6.350;2022-08-19T11:46:30;13.50;;;4.82;;
64609;SDS011;51019;46.090;6.350;2022-08-19T11:48:57;11.65;;;4.47;;
64609;SDS011;51019;46.090;6.350;2022-08-19T11:51:27;11.73;;;4.63;;
64609;SDS011;51019;46.090;6.350;2022-08-19T11:53:55;11.70;;;4.82;;
64609;SDS011;51019;46.090;6.350;2022-08-19T11:56:23;12.43;;;4.72;;
64609;SDS011;51019;46.090;6.350;2022-08-19T11:58:51;12.05;;;4.97;;
64609;SDS011;51019;46.090;6.350;2022-08-19T12:01:19;12.70;;;5.10;;
64609;SDS011;51019;46.090;6.350;2022-08-19T12:03:49;11.88;;;4.80;;
64609;SDS011;51019;46.090;6.350;2022-08-19T12:06:17;12.43;;;5.30;;
64609;SDS011;51019;46.090;6.350;2022-08-19T12:08:50;13.77;;;5.50;;
64609;SDS011;51019;46.090;6.350;2022-08-19T12:11:18;11.75;;;4.97;;
64609;SDS011;51019;46.090;6.350;2022-08-19T12:13:45;11.98;;;5.07;;
64609;SDS011;51019;46.090;6.350;2022-08-19T12:16:14;13.32;;;4.97;;
64609;SDS011;51019;46.090;6.350;2022-08-19T12:18:43;10.55;;;4.32;;
64609;SDS011;51019;46.090;6.350;2022-08-19T12:21:11;12.18;;;4.85;;
64609;SDS011;51019;46.090;6.350;2022-08-19T12:23:39;13.02;;;5.65;;
64609;SDS011;51019;46.090;6.350;2022-08-19T12:26:08;12.52;;;5.43;;
64609;SDS011;51019;46.090;6.350;2022-08-19T12:28:37;11.63;;;4.88;;
64609;SDS011;51019;46.090;6.350;2022-08-19T12:31:04;11.70;;;4.65;;
64609;SDS011;51019;46.090;6.350;2022-08-19T12:33:32;11.63;;;4.63;;
64609;SDS011;51019;46.090;6.350;2022-08-19T12:36:00;11.93;;;4.88;;
64609;SDS011;51019;46.090;6.350;2022-08-19T12:38:29;13.05;;;4.97;;
64609;SDS011;51019;46.090;6.350;2022-08-19T12:40:57;12.55;;;4.63;;
64609;SDS011;51019;46.090;6.350;2022-08-19T12:43:26;11.98;;;4.88;;
64609;SDS011;51019;46.090;6.350;2022-08-19T12:45:54;12.05;;;5.30;;
64609;SDS011;51019;46.090;6.350;2022-08-19T12:48:21;12.20;;;5.07;;
64609;SDS011;51019;46.090;6.350;2022-08-19T12:50:48;13.73;;;5.65;;
64609;SDS011;51019;46.090;6.350;2022-08-19T12:53:15;12.05;;;5.13;;
64609;SDS011;51019;46.090;6.350;2022-08-19T12:55:42;11.82;;;4.95;;
64609;SDS011;51019;46.090;6.350;2022-08-19T12:58:09;13.63;;;5.35;;
64609;SDS011;51019;46.090;6.350;2022-08-19T13:00:39;13.18;;;5.80;;
64609;SDS011;51019;46.090;6.350;2022-08-19T13:03:06;12.30;;;5.13;;
64609;SDS011;51019;46.090;6.350;2022-08-19T13:05:33;12.82;;;5.47;;
64609;SDS011;51019;46.090;6.350;2022-08-19T13:08:00;12.88;;;5.38;;
64609;SDS011;51019;46.090;6.350;2022-08-19T13:10:29;12.48;;;5.00;;
64609;SDS011;51019;46.090;6.350;2022-08-19T13:13:00;13.07;;;4.82;;
64609;SDS011;51019;46.090;6.350;2022-08-19T13:15:28;12.95;;;5.70;;
64609;SDS011;51019;46.090;6.350;2022-08-19T13:18:00;13.18;;;5.43;;
64609;SDS011;51019;46.090;6.350;2022-08-19T13:20:27;12.65;;;5.10;;
64609;SDS011;51019;46.090;6.350;2022-08-19T13:22:55;12.57;;;5.32;;
64609;SDS011;51019;46.090;6.350;2022-08-19T13:25:22;13.27;;;5.72;;
64609;SDS011;51019;46.090;6.350;2022-08-19T13:27:49;14.38;;;6.18;;
64609;SDS011;51019;46.090;6.350;2022-08-19T13:30:17;12.18;;;5.35;;
64609;SDS011;51019;46.090;6.350;2022-08-19T13:33:05;12.93;;;5.40;;
64609;SDS011;51019;46.090;6.350;2022-08-19T13:35:39;13.10;;;5.90;;
64609;SDS011;51019;46.090;6.350;2022-08-19T13:38:09;13.55;;;5.65;;
64609;SDS011;51019;46.090;6.350;2022-08-19T13:40:37;12.90;;;5.72;;
64609;SDS011;51019;46.090;6.350;2022-08-19T13:43:05;12.90;;;5.75;;
64609;SDS011;51019;46.090;6.350;2022-08-19T13:45:33;12.23;;;5.65;;
64609;SDS011;51019;46.090;6.350;2022-08-19T13:48:00;14.13;;;6.15;;
64609;SDS011;51019;46.090;6.350;2022-08-19T13:50:33;13.10;;;6.30;;
64609;SDS011;51019;46.090;6.350;2022-08-19T13:53:04;13.07;;;5.93;;
64609;SDS011;51019;46.090;6.350;2022-08-19T13:55:31;13.05;;;5.68;;
64609;SDS011;51019;46.090;6.350;2022-08-19T13:57:58;12.75;;;5.65;;
64609;SDS011;51019;46.090;6.350;2022-08-19T14:00:30;15.02;;;6.20;;
64609;SDS011;51019;46.090;6.350;2022-08-19T14:05:26;13.40;;;5.97;;
64609;SDS011;51019;46.090;6.350;2022-08-19T14:07:55;13.52;;;5.93;;
64609;SDS011;51019;46.090;6.350;2022-08-19T14:10:23;14.85;;;6.28;;
64609;SDS011;51019;46.090;6.350;2022-08-19T14:12:52;13.82;;;6.13;;
64609;SDS011;51019;46.090;6.350;2022-08-19T14:15:23;13.73;;;6.30;;
64609;SDS011;51019;46.090;6.350;2022-08-19T14:17:51;12.98;;;5.72;;
64609;SDS011;51019;46.090;6.350;2022-08-19T14:20:18;12.70;;;5.72;;
64609;SDS011;51019;46.090;6.350;2022-08-19T14:22:46;12.95;;;5.70;;
64609;SDS011;51019;46.090;6.350;2022-08-19T14:25:16;13.60;;;6.55;;
64609;SDS011;51019;46.090;6.350;2022-08-19T14:27:45;14.30;;;6.65;;
64609;SDS011;51019;46.090;6.350;2022-08-19T14:30:14;13.55;;;5.90;;
64609;SDS011;51019;46.090;6.350;2022-08-19T14:32:42;14.95;;;6.70;;
64609;SDS011;51019;46.090;6.350;2022-08-19T14:35:10;13.75;;;6.53;;
64609;SDS011;51019;46.090;6.350;2022-08-19T14:37:37;13.05;;;6.03;;
64609;SDS011;51019;46.090;6.350;2022-08-19T14:40:06;13.70;;;6.50;;
64609;SDS011;51019;46.090;6.350;2022-08-19T14:42:35;13.65;;;6.32;;
64609;SDS011;51019;46.090;6.350;2022-08-19T14:45:03;14.18;;;6.13;;
64609;SDS011;51019;46.090;6.350;2022-08-19T14:47:31;14.23;;;6.25;;
64609;SDS011;51019;46.090;6.350;2022-08-19T14:49:58;14.95;;;6.00;;